sensor_id;sensor_type;location;lat;lon;timestamp;noise_LAeq;noise_LA_min;noise_LA_max;noise_LA01;noise_LA95
57439;Laerm;43282;47.188;8.896;2022-12-29T00:01:06;61.28;39.92;89.73;;
57439;Laerm;43282;47.188;8.896;2022-12-29T00:03:31;47.54;39.81;61.96;;
57439;Laerm;43282;47.188;8.896;2022-12-29T00:05:57;42.43;39.21;49.43;;
57439;Laerm;43282;47.188;8.896;2022-12-29T00:08:23;45.98;39.46;62.48;;
57439;Laerm;43282;47.188;8.896;2022-12-29T00:11:05;44.89;40.23;55.58;;
57439;Laerm;43282;47.188;8.896;2022-12-29T00:13:30;48.37;41.30;62.56;;
57439;Laerm;43282;47.188;8.896;2022-12-29T00:16:18;50.51;42.16;62.35;;
57439;Laerm;43282;47.188;8.896;2022-12-29T00:18:44;48.89;41.75;64.38;;
57439;Laerm;43282;47.188;8.896;2022-12-29T00:21:19;49.36;41.14;64.64;;
57439;Laerm;43282;47.188;8.896;2022-12-29T00:24:03;46.78;38.37;59.96;;
57439;Laerm;43282;47.188;8.896;2022-12-29T00:26:53;43.83;38.95;58.25;;
57439;Laerm;43282;47.188;8.896;2022-12-29T00:29:38;45.78;38.37;60.56;;
57439;Laerm;43282;47.188;8.896;2022-12-29T00:32:22;47.71;39.21;64.89;;
57439;Laerm;43282;47.188;8.896;2022-12-29T00:35:07;43.34;38.95;57.17;;
57439;Laerm;43282;47.188;8.896;2022-12-29T00:37:34;45.52;39.21;61.60;;
57439;Laerm;43282;47.188;8.896;2022-12-29T00:40:38;48.37;39.08;65.14;;
57439;Laerm;43282;47.188;8.896;2022-12-29T00:43:26;41.82;37.88;52.48;;
57439;Laerm;43282;47.188;8.896;2022-12-29T00:46:10;49.35;38.67;65.51;;
57439;Laerm;43282;47.188;8.896;2022-12-29T00:48:35;42.96;39.92;55.81;;
57439;Laerm;43282;47.188;8.896;2022-12-29T00:51:19;48.19;40.43;68.44;;
57439;Laerm;43282;47.188;8.896;2022-12-29T00:53:45;46.13;40.03;61.31;;
57439;Laerm;43282;47.188;8.896;2022-12-29T00:56:10;42.91;38.52;52.75;;
57439;Laerm;43282;47.188;8.896;2022-12-29T00:58:35;47.55;40.98;61.02;;
57439;Laerm;43282;47.188;8.896;2022-12-29T01:01:04;47.59;39.46;64.63;;
57439;Laerm;43282;47.188;8.896;2022-12-29T01:03:30;41.17;38.21;45.80;;
57439;Laerm;43282;47.188;8.896;2022-12-29T01:05:55;45.35;38.52;62.21;;
57439;Laerm;43282;47.188;8.896;2022-12-29T01:08:20;46.00;38.05;62.22;;
57439;Laerm;43282;47.188;8.896;2022-12-29T01:10:46;41.81;38.81;45.01;;
57439;Laerm;43282;47.188;8.896;2022-12-29T01:13:11;47.20;39.46;61.73;;
57439;Laerm;43282;47.188;8.896;2022-12-29T01:15:36;46.28;40.23;63.55;;
57439;Laerm;43282;47.188;8.896;2022-12-29T01:18:01;42.75;39.34;47.88;;
57439;Laerm;43282;47.188;8.896;2022-12-29T01:20:27;42.80;39.21;56.01;;
57439;Laerm;43282;47.188;8.896;2022-12-29T01:22:53;41.91;38.05;46.20;;
57439;Laerm;43282;47.188;8.896;2022-12-29T01:25:19;48.31;37.88;63.55;;
57439;Laerm;43282;47.188;8.896;2022-12-29T01:27:44;44.16;36.77;60.34;;
57439;Laerm;43282;47.188;8.896;2022-12-29T01:30:10;48.38;39.23;62.12;;
57439;Laerm;43282;47.188;8.896;2022-12-29T01:32:35;41.75;38.21;46.57;;
57439;Laerm;43282;47.188;8.896;2022-12-29T01:35:00;52.17;38.37;63.77;;
57439;Laerm;43282;47.188;8.896;2022-12-29T01:37:26;41.63;37.70;46.84;;
57439;Laerm;43282;47.188;8.896;2022-12-29T01:39:51;42.31;39.08;49.87;;
57439;Laerm;43282;47.188;8.896;2022-12-29T01:42:17;41.17;37.32;44.80;;
57439;Laerm;43282;47.188;8.896;2022-12-29T01:47:09;49.58;38.81;65.39;;
57439;Laerm;43282;47.188;8.896;2022-12-29T01:49:34;47.26;38.37;63.82;;
57439;Laerm;43282;47.188;8.896;2022-12-29T01:52:01;41.48;38.21;46.62;;
57439;Laerm;43282;47.188;8.896;2022-12-29T01:54:37;41.87;38.81;45.01;;
57439;Laerm;43282;47.188;8.896;2022-12-29T01:57:05;44.06;38.81;51.13;;
57439;Laerm;43282;47.188;8.896;2022-12-29T01:59:34;44.47;38.67;60.92;;
57439;Laerm;43282;47.188;8.896;2022-12-29T02:02:03;48.86;37.88;66.52;;
57439;Laerm;43282;47.188;8.896;2022-12-29T02:04:29;44.24;38.37;55.94;;
57439;Laerm;43282;47.188;8.896;2022-12-29T02:06:57;48.67;38.81;66.02;;
57439;Laerm;43282;47.188;8.896;2022-12-29T02:09:24;47.18;38.37;60.73;;
57439;Laerm;43282;47.188;8.896;2022-12-29T02:11:50;48.08;39.08;65.63;;
57439;Laerm;43282;47.188;8.896;2022-12-29T02:14:15;45.33;39.81;62.96;;
57439;Laerm;43282;47.188;8.896;2022-12-29T02:27:44;47.70;39.34;65.58;;
57439;Laerm;43282;47.188;8.896;2022-12-29T02:32:49;46.84;38.67;59.74;;
57439;Laerm;43282;47.188;8.896;2022-12-29T02:45:15;47.17;39.21;64.04;;
57439;Laerm;43282;47.188;8.896;2022-12-29T02:47:54;48.24;38.67;64.70;;
57439;Laerm;43282;47.188;8.896;2022-12-29T02:53:00;47.07;39.34;64.80;;
57439;Laerm;43282;47.188;8.896;2022-12-29T02:55:26;41.66;39.46;48.34;;
57439;Laerm;43282;47.188;8.896;2022-12-29T03:00:40;42.20;39.70;50.29;;
57439;Laerm;43282;47.188;8.896;2022-12-29T03:03:16;41.44;39.21;44.59;;
57439;Laerm;43282;47.188;8.896;2022-12-29T03:06:01;45.64;40.13;61.95;;
57439;Laerm;43282;47.188;8.896;2022-12-29T03:08:44;49.34;40.23;66.00;;
57439;Laerm;43282;47.188;8.896;2022-12-29T03:11:14;42.79;39.92;48.31;;
57439;Laerm;43282;47.188;8.896;2022-12-29T03:14:12;43.45;40.03;53.55;;
57439;Laerm;43282;47.188;8.896;2022-12-29T03:16:59;43.53;39.46;57.77;;
57439;Laerm;43282;47.188;8.896;2022-12-29T03:19:27;43.49;40.03;50.73;;
57439;Laerm;43282;47.188;8.896;2022-12-29T03:22:07;44.53;39.70;52.49;;
57439;Laerm;43282;47.188;8.896;2022-12-29T03:24:53;43.93;39.92;51.17;;
57439;Laerm;43282;47.188;8.896;2022-12-29T03:27:22;43.73;39.58;50.87;;
57439;Laerm;43282;47.188;8.896;2022-12-29T03:29:50;50.59;41.30;66.16;;
57439;Laerm;43282;47.188;8.896;2022-12-29T03:32:21;47.49;40.23;61.63;;
57439;Laerm;43282;47.188;8.896;2022-12-29T03:34:48;47.61;39.46;64.85;;
57439;Laerm;43282;47.188;8.896;2022-12-29T03:37:15;47.18;38.67;59.96;;
57439;Laerm;43282;47.188;8.896;2022-12-29T03:39:41;56.68;40.89;65.56;;
57439;Laerm;43282;47.188;8.896;2022-12-29T03:42:11;52.67;39.08;67.32;;
57439;Laerm;43282;47.188;8.896;2022-12-29T03:44:39;47.51;39.08;62.67;;
57439;Laerm;43282;47.188;8.896;2022-12-29T03:47:06;44.57;39.46;53.21;;
57439;Laerm;43282;47.188;8.896;2022-12-29T03:49:31;50.18;39.46;65.73;;
57439;Laerm;43282;47.188;8.896;2022-12-29T03:51:57;45.65;39.58;61.90;;
57439;Laerm;43282;47.188;8.896;2022-12-29T03:54:23;46.28;38.05;64.20;;
57439;Laerm;43282;47.188;8.896;2022-12-29T03:56:48;46.92;38.81;62.64;;
57439;Laerm;43282;47.188;8.896;2022-12-29T03:59:13;43.81;40.23;55.68;;
57439;Laerm;43282;47.188;8.896;2022-12-29T04:01:38;48.59;41.06;61.68;;
57439;Laerm;43282;47.188;8.896;2022-12-29T04:04:04;43.10;39.70;48.78;;
57439;Laerm;43282;47.188;8.896;2022-12-29T04:06:29;42.83;39.70;49.29;;
57439;Laerm;43282;47.188;8.896;2022-12-29T04:08:54;43.27;38.81;47.42;;
57439;Laerm;43282;47.188;8.896;2022-12-29T04:11:20;52.07;38.52;68.63;;
57439;Laerm;43282;47.188;8.896;2022-12-29T04:13:45;50.01;41.38;64.41;;
57439;Laerm;43282;47.188;8.896;2022-12-29T04:16:11;47.58;40.62;59.31;;
57439;Laerm;43282;47.188;8.896;2022-12-29T04:18:36;52.90;39.34;71.84;;
57439;Laerm;43282;47.188;8.896;2022-12-29T04:21:01;48.89;39.70;64.43;;
57439;Laerm;43282;47.188;8.896;2022-12-29T04:23:32;54.46;41.89;70.35;;
57439;Laerm;43282;47.188;8.896;2022-12-29T04:25:58;51.39;42.47;66.83;;
57439;Laerm;43282;47.188;8.896;2022-12-29T04:28:23;48.36;41.53;62.10;;
57439;Laerm;43282;47.188;8.896;2022-12-29T04:30:49;43.24;40.71;49.28;;
57439;Laerm;43282;47.188;8.896;2022-12-29T04:33:14;41.67;38.47;46.66;;
57439;Laerm;43282;47.188;8.896;2022-12-29T04:35:40;45.54;38.81;62.55;;
57439;Laerm;43282;47.188;8.896;2022-12-29T04:38:06;47.77;39.70;62.09;;
57439;Laerm;43282;47.188;8.896;2022-12-29T04:40:31;47.27;40.54;61.11;;
57439;Laerm;43282;47.188;8.896;2022-12-29T04:42:57;48.66;39.70;63.55;;
57439;Laerm;43282;47.188;8.896;2022-12-29T04:45:22;46.66;40.33;60.47;;
57439;Laerm;43282;47.188;8.896;2022-12-29T04:47:47;49.34;42.47;61.84;;
57439;Laerm;43282;47.188;8.896;2022-12-29T04:50:13;57.60;42.24;74.63;;
57439;Laerm;43282;47.188;8.896;2022-12-29T04:52:38;52.96;42.71;68.20;;
57439;Laerm;43282;47.188;8.896;2022-12-29T04:55:04;55.36;43.19;71.81;;
57439;Laerm;43282;47.188;8.896;2022-12-29T04:57:29;51.90;40.23;64.99;;
57439;Laerm;43282;47.188;8.896;2022-12-29T04:59:57;52.09;41.96;63.63;;
57439;Laerm;43282;47.188;8.896;2022-12-29T05:02:23;51.38;43.54;68.72;;
57439;Laerm;43282;47.188;8.896;2022-12-29T05:04:49;55.63;44.87;73.10;;
57439;Laerm;43282;47.188;8.896;2022-12-29T05:07:14;48.49;43.68;55.38;;
57439;Laerm;43282;47.188;8.896;2022-12-29T05:09:39;54.27;43.09;68.98;;
57439;Laerm;43282;47.188;8.896;2022-12-29T05:12:05;50.41;43.39;61.51;;
57439;Laerm;43282;47.188;8.896;2022-12-29T05:14:30;57.85;43.54;76.66;;
57439;Laerm;43282;47.188;8.896;2022-12-29T05:16:56;53.11;44.23;66.38;;
57439;Laerm;43282;47.188;8.896;2022-12-29T05:19:21;56.84;44.65;74.85;;
57439;Laerm;43282;47.188;8.896;2022-12-29T05:21:47;55.30;43.54;66.77;;
57439;Laerm;43282;47.188;8.896;2022-12-29T05:24:12;49.09;42.65;62.34;;
57439;Laerm;43282;47.188;8.896;2022-12-29T05:26:38;54.59;42.93;68.12;;
57439;Laerm;43282;47.188;8.896;2022-12-29T05:29:03;52.21;42.71;64.07;;
57439;Laerm;43282;47.188;8.896;2022-12-29T05:31:28;50.87;43.09;65.14;;
57439;Laerm;43282;47.188;8.896;2022-12-29T05:33:53;58.55;43.94;74.43;;
57439;Laerm;43282;47.188;8.896;2022-12-29T05:36:19;51.82;42.93;63.96;;
57439;Laerm;43282;47.188;8.896;2022-12-29T05:38:44;52.06;43.29;66.13;;
57439;Laerm;43282;47.188;8.896;2022-12-29T05:41:10;50.02;42.47;65.10;;
57439;Laerm;43282;47.188;8.896;2022-12-29T05:43:36;53.15;43.86;67.31;;
57439;Laerm;43282;47.188;8.896;2022-12-29T05:46:01;56.59;43.77;73.74;;
57439;Laerm;43282;47.188;8.896;2022-12-29T05:48:26;51.62;43.90;64.36;;
57439;Laerm;43282;47.188;8.896;2022-12-29T05:50:52;55.97;44.19;70.86;;
57439;Laerm;43282;47.188;8.896;2022-12-29T05:53:17;56.56;43.99;74.31;;
57439;Laerm;43282;47.188;8.896;2022-12-29T05:55:43;55.59;45.65;66.95;;
57439;Laerm;43282;47.188;8.896;2022-12-29T05:58:08;57.14;43.90;74.10;;
57439;Laerm;43282;47.188;8.896;2022-12-29T06:00:34;53.12;43.86;65.99;;
57439;Laerm;43282;47.188;8.896;2022-12-29T06:02:59;57.37;44.23;73.38;;
57439;Laerm;43282;47.188;8.896;2022-12-29T06:05:24;52.41;43.49;66.34;;
57439;Laerm;43282;47.188;8.896;2022-12-29T06:07:49;56.97;44.76;72.27;;
57439;Laerm;43282;47.188;8.896;2022-12-29T06:10:15;52.80;44.47;63.84;;
57439;Laerm;43282;47.188;8.896;2022-12-29T06:12:40;54.40;46.30;64.19;;
57439;Laerm;43282;47.188;8.896;2022-12-29T06:15:05;55.18;43.72;68.59;;
57439;Laerm;43282;47.188;8.896;2022-12-29T06:17:32;54.46;42.88;65.15;;
57439;Laerm;43282;47.188;8.896;2022-12-29T06:19:57;55.39;42.29;72.23;;
57439;Laerm;43282;47.188;8.896;2022-12-29T06:22:23;59.69;45.75;78.98;;
57439;Laerm;43282;47.188;8.896;2022-12-29T06:24:48;57.04;45.20;70.18;;
57439;Laerm;43282;47.188;8.896;2022-12-29T06:27:14;55.10;44.39;70.72;;
57439;Laerm;43282;47.188;8.896;2022-12-29T06:29:39;54.34;44.03;65.60;;
57439;Laerm;43282;47.188;8.896;2022-12-29T06:32:05;60.26;44.31;77.49;;
57439;Laerm;43282;47.188;8.896;2022-12-29T06:34:31;52.26;43.44;65.08;;
57439;Laerm;43282;47.188;8.896;2022-12-29T06:36:56;53.85;43.09;70.16;;
57439;Laerm;43282;47.188;8.896;2022-12-29T06:39:21;53.08;42.76;65.18;;
57439;Laerm;43282;47.188;8.896;2022-12-29T06:41:47;49.98;42.29;65.26;;
57439;Laerm;43282;47.188;8.896;2022-12-29T06:44:12;57.10;42.47;70.92;;
57439;Laerm;43282;47.188;8.896;2022-12-29T06:46:37;54.40;43.29;68.97;;
57439;Laerm;43282;47.188;8.896;2022-12-29T06:49:02;55.85;43.77;76.54;;
57439;Laerm;43282;47.188;8.896;2022-12-29T06:51:28;56.61;47.24;73.91;;
57439;Laerm;43282;47.188;8.896;2022-12-29T06:53:53;56.74;47.26;64.87;;
57439;Laerm;43282;47.188;8.896;2022-12-29T06:56:19;55.13;45.80;66.65;;
57439;Laerm;43282;47.188;8.896;2022-12-29T06:58:44;58.08;45.97;74.53;;
57439;Laerm;43282;47.188;8.896;2022-12-29T07:01:09;55.67;47.22;68.06;;
57439;Laerm;43282;47.188;8.896;2022-12-29T07:03:34;55.28;46.30;69.68;;
57439;Laerm;43282;47.188;8.896;2022-12-29T07:06:00;56.82;45.91;69.65;;
57439;Laerm;43282;47.188;8.896;2022-12-29T07:08:25;56.84;46.48;68.08;;
57439;Laerm;43282;47.188;8.896;2022-12-29T07:10:54;55.81;45.23;67.58;;
57439;Laerm;43282;47.188;8.896;2022-12-29T07:13:19;62.19;44.87;81.08;;
57439;Laerm;43282;47.188;8.896;2022-12-29T07:15:44;58.80;47.24;69.92;;
57439;Laerm;43282;47.188;8.896;2022-12-29T07:18:10;62.65;46.50;80.17;;
57439;Laerm;43282;47.188;8.896;2022-12-29T07:20:35;56.17;46.18;80.36;;
57439;Laerm;43282;47.188;8.896;2022-12-29T07:23:01;57.34;44.73;68.64;;
57439;Laerm;43282;47.188;8.896;2022-12-29T07:25:26;55.35;44.49;71.54;;
57439;Laerm;43282;47.188;8.896;2022-12-29T07:27:53;56.34;45.72;65.42;;
57439;Laerm;43282;47.188;8.896;2022-12-29T07:30:18;60.70;44.95;77.25;;
57439;Laerm;43282;47.188;8.896;2022-12-29T07:32:44;58.84;45.20;72.73;;
57439;Laerm;43282;47.188;8.896;2022-12-29T07:35:09;55.71;45.51;69.16;;
57439;Laerm;43282;47.188;8.896;2022-12-29T07:37:34;55.82;45.45;66.03;;
57439;Laerm;43282;47.188;8.896;2022-12-29T07:40:00;59.42;44.73;76.68;;
57439;Laerm;43282;47.188;8.896;2022-12-29T07:42:25;57.01;49.60;66.98;;
57439;Laerm;43282;47.188;8.896;2022-12-29T07:44:51;59.35;48.43;74.37;;
57439;Laerm;43282;47.188;8.896;2022-12-29T07:47:16;58.95;46.52;76.61;;
57439;Laerm;43282;47.188;8.896;2022-12-29T07:49:41;59.07;48.87;71.86;;
57439;Laerm;43282;47.188;8.896;2022-12-29T07:52:07;58.36;46.23;74.61;;
57439;Laerm;43282;47.188;8.896;2022-12-29T07:54:32;56.70;47.52;65.59;;
57439;Laerm;43282;47.188;8.896;2022-12-29T07:56:58;59.34;50.19;70.76;;
57439;Laerm;43282;47.188;8.896;2022-12-29T07:59:25;59.17;50.66;68.53;;
57439;Laerm;43282;47.188;8.896;2022-12-29T08:01:50;60.16;49.78;70.26;;
57439;Laerm;43282;47.188;8.896;2022-12-29T08:04:15;57.33;49.73;66.59;;
57439;Laerm;43282;47.188;8.896;2022-12-29T08:06:40;57.57;50.41;65.03;;
57439;Laerm;43282;47.188;8.896;2022-12-29T08:09:06;60.73;49.20;75.00;;
57439;Laerm;43282;47.188;8.896;2022-12-29T08:11:31;58.36;49.00;69.71;;
57439;Laerm;43282;47.188;8.896;2022-12-29T08:13:56;59.74;50.32;72.68;;
57439;Laerm;43282;47.188;8.896;2022-12-29T08:16:22;57.73;50.39;67.39;;
57439;Laerm;43282;47.188;8.896;2022-12-29T08:18:47;58.79;50.04;66.81;;
57439;Laerm;43282;47.188;8.896;2022-12-29T08:21:12;59.61;50.45;70.47;;
57439;Laerm;43282;47.188;8.896;2022-12-29T08:23:38;63.74;50.31;82.20;;
57439;Laerm;43282;47.188;8.896;2022-12-29T08:26:04;61.33;51.87;73.39;;
57439;Laerm;43282;47.188;8.896;2022-12-29T08:28:29;60.12;53.22;68.98;;
57439;Laerm;43282;47.188;8.896;2022-12-29T08:30:59;61.10;52.15;73.77;;
57439;Laerm;43282;47.188;8.896;2022-12-29T08:33:25;61.28;52.44;74.52;;
57439;Laerm;43282;47.188;8.896;2022-12-29T08:35:50;60.45;50.89;73.26;;
57439;Laerm;43282;47.188;8.896;2022-12-29T08:38:15;65.05;52.59;81.44;;
57439;Laerm;43282;47.188;8.896;2022-12-29T08:40:41;57.96;49.07;70.36;;
57439;Laerm;43282;47.188;8.896;2022-12-29T08:43:06;58.70;46.84;70.75;;
57439;Laerm;43282;47.188;8.896;2022-12-29T08:45:32;57.40;47.34;68.45;;
57439;Laerm;43282;47.188;8.896;2022-12-29T08:47:57;57.76;45.91;72.24;;
57439;Laerm;43282;47.188;8.896;2022-12-29T08:50:22;58.10;47.83;72.54;;
57439;Laerm;43282;47.188;8.896;2022-12-29T08:52:48;60.96;45.97;76.10;;
57439;Laerm;43282;47.188;8.896;2022-12-29T08:55:14;63.45;46.50;77.35;;
57439;Laerm;43282;47.188;8.896;2022-12-29T08:57:39;56.98;45.72;65.78;;
57439;Laerm;43282;47.188;8.896;2022-12-29T09:00:05;58.65;50.50;66.53;;
57439;Laerm;43282;47.188;8.896;2022-12-29T09:02:30;56.70;47.34;66.78;;
57439;Laerm;43282;47.188;8.896;2022-12-29T09:04:55;59.00;50.10;71.12;;
57439;Laerm;43282;47.188;8.896;2022-12-29T09:07:22;57.91;49.70;66.83;;
57439;Laerm;43282;47.188;8.896;2022-12-29T09:09:47;58.56;50.46;69.54;;
57439;Laerm;43282;47.188;8.896;2022-12-29T09:12:13;56.53;45.11;66.19;;
57439;Laerm;43282;47.188;8.896;2022-12-29T09:14:38;58.30;45.27;78.43;;
57439;Laerm;43282;47.188;8.896;2022-12-29T09:17:03;56.50;46.76;64.65;;
57439;Laerm;43282;47.188;8.896;2022-12-29T09:19:48;56.43;45.11;70.28;;
57439;Laerm;43282;47.188;8.896;2022-12-29T09:22:13;57.34;43.94;67.71;;
57439;Laerm;43282;47.188;8.896;2022-12-29T09:24:39;57.79;43.81;67.53;;
57439;Laerm;43282;47.188;8.896;2022-12-29T09:27:04;58.05;44.39;73.71;;
57439;Laerm;43282;47.188;8.896;2022-12-29T09:29:30;55.82;45.60;65.35;;
57439;Laerm;43282;47.188;8.896;2022-12-29T09:31:55;57.09;45.51;65.73;;
57439;Laerm;43282;47.188;8.896;2022-12-29T09:34:20;59.24;44.66;74.55;;
57439;Laerm;43282;47.188;8.896;2022-12-29T09:36:45;56.60;46.05;64.28;;
57439;Laerm;43282;47.188;8.896;2022-12-29T09:39:12;57.80;46.38;69.54;;
57439;Laerm;43282;47.188;8.896;2022-12-29T09:41:47;53.74;44.73;69.85;;
57439;Laerm;43282;47.188;8.896;2022-12-29T09:44:23;63.32;44.87;80.77;;
57439;Laerm;43282;47.188;8.896;2022-12-29T09:46:51;56.92;44.35;67.09;;
57439;Laerm;43282;47.188;8.896;2022-12-29T09:51:59;55.84;44.65;66.18;;
57439;Laerm;43282;47.188;8.896;2022-12-29T09:56:56;56.66;43.77;70.30;;
57439;Laerm;43282;47.188;8.896;2022-12-29T09:59:26;58.27;44.23;69.79;;
57439;Laerm;43282;47.188;8.896;2022-12-29T10:01:54;58.47;45.01;75.73;;
57439;Laerm;43282;47.188;8.896;2022-12-29T10:04:21;61.14;47.83;86.01;;
57439;Laerm;43282;47.188;8.896;2022-12-29T10:09:36;56.93;45.91;69.64;;
57439;Laerm;43282;47.188;8.896;2022-12-29T10:25:12;60.07;44.11;80.00;;
57439;Laerm;43282;47.188;8.896;2022-12-29T10:27:40;55.65;42.53;66.09;;
57439;Laerm;43282;47.188;8.896;2022-12-29T10:30:10;60.36;42.65;76.66;;
57439;Laerm;43282;47.188;8.896;2022-12-29T10:32:38;55.87;42.47;68.38;;
57439;Laerm;43282;47.188;8.896;2022-12-29T10:35:10;57.47;43.19;71.71;;
57439;Laerm;43282;47.188;8.896;2022-12-29T10:43:29;56.84;41.06;69.55;;
57439;Laerm;43282;47.188;8.896;2022-12-29T10:45:56;58.46;42.64;71.34;;
57439;Laerm;43282;47.188;8.896;2022-12-29T10:48:23;54.92;42.03;67.39;;
57439;Laerm;43282;47.188;8.896;2022-12-29T10:50:50;56.58;41.53;70.05;;
57439;Laerm;43282;47.188;8.896;2022-12-29T10:53:22;60.56;42.76;80.57;;
57439;Laerm;43282;47.188;8.896;2022-12-29T10:55:48;57.03;43.99;69.03;;
57439;Laerm;43282;47.188;8.896;2022-12-29T10:58:14;57.95;45.86;70.43;;
57439;Laerm;43282;47.188;8.896;2022-12-29T11:00:40;56.12;45.60;67.76;;
57439;Laerm;43282;47.188;8.896;2022-12-29T11:08:20;56.32;44.58;67.38;;
57439;Laerm;43282;47.188;8.896;2022-12-29T11:10:46;55.08;45.60;64.77;;
57439;Laerm;43282;47.188;8.896;2022-12-29T11:13:25;58.15;46.71;69.54;;
57439;Laerm;43282;47.188;8.896;2022-12-29T11:15:51;57.76;45.27;70.10;;
57439;Laerm;43282;47.188;8.896;2022-12-29T11:18:20;54.04;44.39;68.31;;
57439;Laerm;43282;47.188;8.896;2022-12-29T11:20:46;58.23;44.76;72.91;;
57439;Laerm;43282;47.188;8.896;2022-12-29T11:26:06;57.19;44.65;69.79;;
57439;Laerm;43282;47.188;8.896;2022-12-29T11:28:33;51.85;43.24;64.14;;
57439;Laerm;43282;47.188;8.896;2022-12-29T11:30:59;54.97;44.79;66.06;;
57439;Laerm;43282;47.188;8.896;2022-12-29T11:33:27;54.67;43.54;69.14;;
57439;Laerm;43282;47.188;8.896;2022-12-29T11:35:56;54.22;44.69;69.94;;
57439;Laerm;43282;47.188;8.896;2022-12-29T11:38:23;56.81;43.86;70.98;;
57439;Laerm;43282;47.188;8.896;2022-12-29T11:40:50;64.09;44.54;81.23;;
57439;Laerm;43282;47.188;8.896;2022-12-29T11:43:32;52.64;43.34;63.69;;
57439;Laerm;43282;47.188;8.896;2022-12-29T11:45:59;56.21;44.80;70.85;;
57439;Laerm;43282;47.188;8.896;2022-12-29T11:48:26;55.50;44.87;73.05;;
57439;Laerm;43282;47.188;8.896;2022-12-29T11:50:54;56.87;44.39;72.57;;
57439;Laerm;43282;47.188;8.896;2022-12-29T11:53:27;56.23;44.69;71.32;;
57439;Laerm;43282;47.188;8.896;2022-12-29T11:55:54;58.04;44.62;72.64;;
57439;Laerm;43282;47.188;8.896;2022-12-29T11:58:21;54.11;45.01;66.68;;
57439;Laerm;43282;47.188;8.896;2022-12-29T12:00:53;55.88;45.54;66.38;;
57439;Laerm;43282;47.188;8.896;2022-12-29T12:03:19;58.95;47.90;74.97;;
57439;Laerm;43282;47.188;8.896;2022-12-29T12:08:17;59.04;48.07;70.09;;
57439;Laerm;43282;47.188;8.896;2022-12-29T12:15:42;63.82;46.55;78.40;;
57439;Laerm;43282;47.188;8.896;2022-12-29T12:18:11;58.23;46.71;69.20;;
57439;Laerm;43282;47.188;8.896;2022-12-29T12:20:45;53.72;42.69;65.42;;
57439;Laerm;43282;47.188;8.896;2022-12-29T12:25:39;58.25;44.43;72.07;;
57439;Laerm;43282;47.188;8.896;2022-12-29T12:28:13;56.56;43.14;69.95;;
57439;Laerm;43282;47.188;8.896;2022-12-29T12:30:42;55.55;43.19;67.21;;
57439;Laerm;43282;47.188;8.896;2022-12-29T12:45:46;57.34;45.01;68.75;;
57439;Laerm;43282;47.188;8.896;2022-12-29T12:55:56;57.75;50.49;68.54;;
57439;Laerm;43282;47.188;8.896;2022-12-29T13:01:17;56.25;46.55;71.00;;
57439;Laerm;43282;47.188;8.896;2022-12-29T13:19:10;55.67;44.03;67.64;;
57439;Laerm;43282;47.188;8.896;2022-12-29T13:27:11;58.38;44.08;70.88;;
57439;Laerm;43282;47.188;8.896;2022-12-29T13:29:42;58.63;46.71;68.10;;
57439;Laerm;43282;47.188;8.896;2022-12-29T13:32:15;56.27;44.15;73.42;;
57439;Laerm;43282;47.188;8.896;2022-12-29T13:37:14;55.51;44.95;67.70;;
57439;Laerm;43282;47.188;8.896;2022-12-29T13:39:43;59.51;45.14;73.06;;
57439;Laerm;43282;47.188;8.896;2022-12-29T13:42:11;54.49;44.39;67.25;;
57439;Laerm;43282;47.188;8.896;2022-12-29T13:44:38;54.99;43.24;65.41;;
57439;Laerm;43282;47.188;8.896;2022-12-29T13:47:08;62.81;43.94;79.34;;
57439;Laerm;43282;47.188;8.896;2022-12-29T13:49:35;60.89;45.07;74.93;;
57439;Laerm;43282;47.188;8.896;2022-12-29T13:52:09;56.81;43.19;67.72;;
57439;Laerm;43282;47.188;8.896;2022-12-29T14:02:07;56.87;44.27;67.35;;
57439;Laerm;43282;47.188;8.896;2022-12-29T14:04:35;60.64;45.60;75.75;;
57439;Laerm;43282;47.188;8.896;2022-12-29T14:09:39;56.59;48.58;64.77;;
57439;Laerm;43282;47.188;8.896;2022-12-29T14:14:50;58.97;48.60;69.77;;
57439;Laerm;43282;47.188;8.896;2022-12-29T14:17:18;61.02;49.79;73.99;;
57439;Laerm;43282;47.188;8.896;2022-12-29T14:19:44;56.51;48.21;70.18;;
57439;Laerm;43282;47.188;8.896;2022-12-29T14:22:10;58.15;47.91;67.89;;
57439;Laerm;43282;47.188;8.896;2022-12-29T14:24:40;58.51;46.56;69.81;;
57439;Laerm;43282;47.188;8.896;2022-12-29T14:34:46;57.64;44.69;68.71;;
57439;Laerm;43282;47.188;8.896;2022-12-29T14:42:27;57.03;43.68;67.97;;
57439;Laerm;43282;47.188;8.896;2022-12-29T14:45:39;56.74;46.20;64.82;;
57439;Laerm;43282;47.188;8.896;2022-12-29T14:50:07;58.96;49.07;71.61;;
57439;Laerm;43282;47.188;8.896;2022-12-29T14:58:02;59.26;51.02;69.69;;
57439;Laerm;43282;47.188;8.896;2022-12-29T15:00:30;60.10;52.19;65.70;;
57439;Laerm;43282;47.188;8.896;2022-12-29T15:03:57;59.57;52.56;68.29;;
57439;Laerm;43282;47.188;8.896;2022-12-29T15:08:33;58.47;52.42;66.01;;
57439;Laerm;43282;47.188;8.896;2022-12-29T15:11:04;58.64;52.19;66.03;;
57439;Laerm;43282;47.188;8.896;2022-12-29T15:13:38;60.01;51.30;71.20;;
57439;Laerm;43282;47.188;8.896;2022-12-29T15:16:04;58.33;51.85;66.57;;
57439;Laerm;43282;47.188;8.896;2022-12-29T15:18:30;59.97;51.89;67.46;;
57439;Laerm;43282;47.188;8.896;2022-12-29T15:21:03;59.85;54.22;65.50;;
57439;Laerm;43282;47.188;8.896;2022-12-29T15:23:30;60.70;54.85;70.83;;
57439;Laerm;43282;47.188;8.896;2022-12-29T15:25:57;60.15;52.17;72.24;;
57439;Laerm;43282;47.188;8.896;2022-12-29T15:28:23;59.14;49.46;65.73;;
57439;Laerm;43282;47.188;8.896;2022-12-29T15:30:52;58.83;51.53;67.26;;
57439;Laerm;43282;47.188;8.896;2022-12-29T15:33:19;60.77;52.57;73.62;;
57439;Laerm;43282;47.188;8.896;2022-12-29T15:35:44;59.15;50.83;67.08;;
57439;Laerm;43282;47.188;8.896;2022-12-29T15:38:22;58.69;49.81;68.84;;
57439;Laerm;43282;47.188;8.896;2022-12-29T15:40:51;66.83;49.97;95.28;;
57439;Laerm;43282;47.188;8.896;2022-12-29T15:45:48;59.70;46.35;74.36;;
57439;Laerm;43282;47.188;8.896;2022-12-29T15:48:16;56.93;46.59;68.05;;
57439;Laerm;43282;47.188;8.896;2022-12-29T15:50:43;58.79;47.06;71.19;;
57439;Laerm;43282;47.188;8.896;2022-12-29T15:53:09;56.00;44.62;64.92;;
57439;Laerm;43282;47.188;8.896;2022-12-29T15:55:36;57.18;44.76;69.04;;
57439;Laerm;43282;47.188;8.896;2022-12-29T15:58:03;56.33;45.07;67.53;;
57439;Laerm;43282;47.188;8.896;2022-12-29T16:00:33;59.43;46.07;90.22;;
57439;Laerm;43282;47.188;8.896;2022-12-29T16:02:59;57.26;45.89;71.90;;
57439;Laerm;43282;47.188;8.896;2022-12-29T16:05:35;57.09;44.62;71.67;;
57439;Laerm;43282;47.188;8.896;2022-12-29T16:08:02;56.23;45.01;67.82;;
57439;Laerm;43282;47.188;8.896;2022-12-29T16:10:38;53.89;44.65;66.05;;
57439;Laerm;43282;47.188;8.896;2022-12-29T16:13:25;58.15;45.46;67.65;;
57439;Laerm;43282;47.188;8.896;2022-12-29T16:15:55;59.15;47.86;70.57;;
57439;Laerm;43282;47.188;8.896;2022-12-29T16:18:23;60.27;50.25;74.76;;
57439;Laerm;43282;47.188;8.896;2022-12-29T16:20:50;54.94;45.14;65.65;;
57439;Laerm;43282;47.188;8.896;2022-12-29T16:23:23;57.81;45.17;67.75;;
57439;Laerm;43282;47.188;8.896;2022-12-29T16:25:50;59.20;49.72;71.00;;
57439;Laerm;43282;47.188;8.896;2022-12-29T16:28:28;58.22;49.04;66.79;;
57439;Laerm;43282;47.188;8.896;2022-12-29T16:31:06;60.67;53.46;67.97;;